This is the latest recevied weather packets stored in our database for station/object N5MDT. If no packets are shown the sender has not sent any weather packets the latest 10 day(s).
| Time | Temp. | Humidity | Pressure | Rain* | Wind** | Luminosity | Snow |
|---|---|---|---|---|---|---|---|
| 1777769301 | 25.56° C | 51% | 1020 hPa | 0 mm | - | - | - |
| 1777768731 | 26.11° C | 51% | 1020 hPa | 0 mm | - | - | - |
| 1777768100 | 26.67° C | 49% | 1019.8 hPa | 0 mm | - | - | - |
| 1777767500 | 27.22° C | 47% | 1019.8 hPa | 0 mm | - | - | - |
| 1777766901 | 27.78° C | 45% | 1019.7 hPa | 0 mm | - | - | - |
| 1777766300 | 28.33° C | 46% | 1019.5 hPa | 0 mm | - | - | - |
| 1777765700 | 28.33° C | 45% | 1019.5 hPa | 0 mm | - | - | - |
| 1777765100 | 28.89° C | 45% | 1019.5 hPa | 0 mm | - | - | - |
| 1777764530 | 28.89° C | 43% | 1019.5 hPa | 0 mm | - | - | - |
| 1777763930 | 29.44° C | 46% | 1019.5 hPa | 0 mm | - | - | - |
| 1777763300 | 29.44° C | 46% | 1019.5 hPa | 0 mm | - | - | - |
| 1777762730 | 28.89° C | 45% | 1019.5 hPa | 0 mm | - | - | - |
| 1777762099 | 28.33° C | 45% | 1019.5 hPa | 0 mm | - | - | - |
| 1777761499 | 28.33° C | 46% | 1019.5 hPa | 0 mm | - | - | - |
| 1777760929 | 27.78° C | 47% | 1019.6 hPa | 0 mm | - | - | - |
| 1777760329 | 27.78° C | 48% | 1019.6 hPa | 0 mm | - | - | - |
| 1777759729 | 27.78° C | 49% | 1019.6 hPa | 0 mm | - | - | - |
| 1777759129 | 27.78° C | 49% | 1019.7 hPa | 0 mm | - | - | - |
| 1777758499 | 27.78° C | 50% | 1019.8 hPa | 0 mm | - | - | - |
| 1777757899 | 27.78° C | 49% | 1019.9 hPa | 0 mm | - | - | - |
| 1777757329 | 27.78° C | 50% | 1019.9 hPa | 0 mm | - | - | - |
| 1777756729 | 27.78° C | 51% | 1019.8 hPa | 0 mm | - | - | - |
| 1777756098 | 27.22° C | 51% | 1019.9 hPa | 0 mm | - | - | - |
| 1777755498 | 26.67° C | 53% | 1020 hPa | 0 mm | - | - | - |
| 1777754928 | 26.67° C | 55% | 1020 hPa | 0 mm | - | - | - |
* Rain latest hour (hover to see other rain measurements)
** Current wind speed in m/s (hover to see current wind gust speed)